sensor_id;sensor_type;location;lat;lon;timestamp;P1;durP1;ratioP1;P2;durP2;ratioP2
14153;SDS011;7157;53.144;7.570;2024-01-30T00:01:43;19.52;;;11.35;;
14153;SDS011;7157;53.144;7.570;2024-01-30T00:11:48;21.83;;;11.70;;
14153;SDS011;7157;53.144;7.570;2024-01-30T00:21:51;24.13;;;12.20;;
14153;SDS011;7157;53.144;7.570;2024-01-30T00:31:55;21.05;;;11.75;;
14153;SDS011;7157;53.144;7.570;2024-01-30T00:41:58;22.15;;;12.43;;
14153;SDS011;7157;53.144;7.570;2024-01-30T00:52:02;23.55;;;11.93;;
14153;SDS011;7157;53.144;7.570;2024-01-30T01:02:06;19.17;;;11.00;;
14153;SDS011;7157;53.144;7.570;2024-01-30T01:12:10;20.08;;;10.55;;
14153;SDS011;7157;53.144;7.570;2024-01-30T01:22:13;18.30;;;10.52;;
14153;SDS011;7157;53.144;7.570;2024-01-30T01:32:17;20.00;;;10.20;;
14153;SDS011;7157;53.144;7.570;2024-01-30T01:42:20;20.15;;;11.38;;
14153;SDS011;7157;53.144;7.570;2024-01-30T01:52:25;23.77;;;10.48;;
14153;SDS011;7157;53.144;7.570;2024-01-30T02:02:28;21.02;;;10.88;;
14153;SDS011;7157;53.144;7.570;2024-01-30T02:12:34;15.55;;;10.20;;
14153;SDS011;7157;53.144;7.570;2024-01-30T02:22:38;17.83;;;10.27;;
14153;SDS011;7157;53.144;7.570;2024-01-30T02:32:43;18.10;;;10.75;;
14153;SDS011;7157;53.144;7.570;2024-01-30T02:42:47;26.63;;;10.77;;
14153;SDS011;7157;53.144;7.570;2024-01-30T02:52:50;22.10;;;10.82;;
14153;SDS011;7157;53.144;7.570;2024-01-30T03:02:54;18.00;;;10.73;;
14153;SDS011;7157;53.144;7.570;2024-01-30T03:12:57;20.30;;;10.35;;
14153;SDS011;7157;53.144;7.570;2024-01-30T03:23:01;23.58;;;10.80;;
14153;SDS011;7157;53.144;7.570;2024-01-30T03:33:04;19.98;;;10.48;;
14153;SDS011;7157;53.144;7.570;2024-01-30T03:43:08;21.83;;;11.13;;
14153;SDS011;7157;53.144;7.570;2024-01-30T03:53:11;19.58;;;10.52;;
14153;SDS011;7157;53.144;7.570;2024-01-30T04:03:15;23.42;;;10.48;;
14153;SDS011;7157;53.144;7.570;2024-01-30T04:13:18;21.40;;;11.18;;
14153;SDS011;7157;53.144;7.570;2024-01-30T04:23:23;21.45;;;10.40;;
14153;SDS011;7157;53.144;7.570;2024-01-30T04:33:25;19.08;;;10.13;;
14153;SDS011;7157;53.144;7.570;2024-01-30T04:43:30;18.55;;;9.77;;
14153;SDS011;7157;53.144;7.570;2024-01-30T04:53:33;19.42;;;10.52;;
14153;SDS011;7157;53.144;7.570;2024-01-30T05:03:37;20.50;;;9.85;;
14153;SDS011;7157;53.144;7.570;2024-01-30T05:13:40;17.33;;;9.85;;
14153;SDS011;7157;53.144;7.570;2024-01-30T05:23:44;19.55;;;10.10;;
14153;SDS011;7157;53.144;7.570;2024-01-30T05:33:47;18.40;;;10.43;;
14153;SDS011;7157;53.144;7.570;2024-01-30T05:43:52;23.58;;;10.52;;
14153;SDS011;7157;53.144;7.570;2024-01-30T05:53:54;19.13;;;10.98;;
14153;SDS011;7157;53.144;7.570;2024-01-30T06:03:59;18.77;;;10.48;;
14153;SDS011;7157;53.144;7.570;2024-01-30T06:14:02;21.70;;;10.13;;
14153;SDS011;7157;53.144;7.570;2024-01-30T06:24:07;19.30;;;9.65;;
14153;SDS011;7157;53.144;7.570;2024-01-30T06:34:10;20.40;;;10.48;;
14153;SDS011;7157;53.144;7.570;2024-01-30T06:44:14;15.25;;;9.15;;
14153;SDS011;7157;53.144;7.570;2024-01-30T06:54:17;18.52;;;10.13;;
14153;SDS011;7157;53.144;7.570;2024-01-30T07:04:21;20.35;;;9.60;;
14153;SDS011;7157;53.144;7.570;2024-01-30T07:14:25;19.35;;;9.73;;
14153;SDS011;7157;53.144;7.570;2024-01-30T07:24:30;18.15;;;9.27;;
14153;SDS011;7157;53.144;7.570;2024-01-30T07:34:33;13.65;;;8.07;;
14153;SDS011;7157;53.144;7.570;2024-01-30T07:44:51;16.65;;;9.73;;
14153;SDS011;7157;53.144;7.570;2024-01-30T07:54:54;18.65;;;8.75;;
14153;SDS011;7157;53.144;7.570;2024-01-30T08:04:58;16.38;;;8.23;;
14153;SDS011;7157;53.144;7.570;2024-01-30T08:15:01;17.73;;;7.75;;
14153;SDS011;7157;53.144;7.570;2024-01-30T08:25:06;16.42;;;8.43;;
14153;SDS011;7157;53.144;7.570;2024-01-30T08:35:11;16.42;;;7.72;;
14153;SDS011;7157;53.144;7.570;2024-01-30T08:45:16;16.77;;;8.23;;
14153;SDS011;7157;53.144;7.570;2024-01-30T08:55:20;16.83;;;7.95;;
14153;SDS011;7157;53.144;7.570;2024-01-30T09:05:24;14.63;;;8.07;;
14153;SDS011;7157;53.144;7.570;2024-01-30T09:15:27;16.17;;;8.13;;
14153;SDS011;7157;53.144;7.570;2024-01-30T09:25:31;12.40;;;7.40;;
14153;SDS011;7157;53.144;7.570;2024-01-30T09:35:35;17.15;;;8.55;;
14153;SDS011;7157;53.144;7.570;2024-01-30T09:45:40;15.65;;;8.10;;
14153;SDS011;7157;53.144;7.570;2024-01-30T09:55:46;15.63;;;7.72;;
14153;SDS011;7157;53.144;7.570;2024-01-30T10:05:51;13.40;;;7.30;;
14153;SDS011;7157;53.144;7.570;2024-01-30T10:15:54;12.27;;;7.03;;
14153;SDS011;7157;53.144;7.570;2024-01-30T10:26:00;9.68;;;6.05;;
14153;SDS011;7157;53.144;7.570;2024-01-30T10:36:05;12.90;;;6.82;;
14153;SDS011;7157;53.144;7.570;2024-01-30T10:46:14;11.15;;;5.90;;
14153;SDS011;7157;53.144;7.570;2024-01-30T10:56:21;14.23;;;6.25;;
14153;SDS011;7157;53.144;7.570;2024-01-30T11:06:25;14.65;;;7.20;;
14153;SDS011;7157;53.144;7.570;2024-01-30T11:16:30;10.05;;;6.25;;
14153;SDS011;7157;53.144;7.570;2024-01-30T11:26:36;14.43;;;6.88;;
14153;SDS011;7157;53.144;7.570;2024-01-30T11:36:39;12.98;;;6.90;;
14153;SDS011;7157;53.144;7.570;2024-01-30T11:46:49;17.08;;;7.03;;
14153;SDS011;7157;53.144;7.570;2024-01-30T11:56:53;17.48;;;6.45;;
14153;SDS011;7157;53.144;7.570;2024-01-30T12:06:57;15.18;;;7.28;;
14153;SDS011;7157;53.144;7.570;2024-01-30T12:17:04;12.13;;;6.38;;
14153;SDS011;7157;53.144;7.570;2024-01-30T12:27:10;11.40;;;6.38;;
14153;SDS011;7157;53.144;7.570;2024-01-30T12:37:13;15.98;;;6.85;;
14153;SDS011;7157;53.144;7.570;2024-01-30T12:47:22;11.82;;;6.32;;
14153;SDS011;7157;53.144;7.570;2024-01-30T12:57:25;13.23;;;6.35;;
14153;SDS011;7157;53.144;7.570;2024-01-30T13:07:29;12.88;;;6.25;;
14153;SDS011;7157;53.144;7.570;2024-01-30T13:17:32;15.25;;;7.00;;
14153;SDS011;7157;53.144;7.570;2024-01-30T13:27:37;13.18;;;6.82;;
14153;SDS011;7157;53.144;7.570;2024-01-30T13:37:40;14.43;;;6.63;;
14153;SDS011;7157;53.144;7.570;2024-01-30T13:47:45;11.60;;;6.57;;
14153;SDS011;7157;53.144;7.570;2024-01-30T13:57:48;14.30;;;6.90;;
14153;SDS011;7157;53.144;7.570;2024-01-30T14:07:53;12.30;;;4.72;;
14153;SDS011;7157;53.144;7.570;2024-01-30T14:17:56;12.48;;;4.88;;
14153;SDS011;7157;53.144;7.570;2024-01-30T14:28:02;7.88;;;3.10;;
14153;SDS011;7157;53.144;7.570;2024-01-30T14:38:06;6.88;;;2.70;;
14153;SDS011;7157;53.144;7.570;2024-01-30T14:48:12;6.78;;;2.53;;
14153;SDS011;7157;53.144;7.570;2024-01-30T14:58:15;4.82;;;2.88;;
14153;SDS011;7157;53.144;7.570;2024-01-30T15:08:20;9.93;;;3.25;;
14153;SDS011;7157;53.144;7.570;2024-01-30T15:18:24;6.93;;;2.70;;
14153;SDS011;7157;53.144;7.570;2024-01-30T15:28:35;7.80;;;2.17;;
14153;SDS011;7157;53.144;7.570;2024-01-30T15:38:39;3.53;;;1.70;;
14153;SDS011;7157;53.144;7.570;2024-01-30T15:48:43;3.00;;;1.50;;
14153;SDS011;7157;53.144;7.570;2024-01-30T15:58:47;5.20;;;1.40;;
14153;SDS011;7157;53.144;7.570;2024-01-30T16:08:54;3.95;;;1.23;;
14153;SDS011;7157;53.144;7.570;2024-01-30T16:18:57;3.72;;;1.15;;
14153;SDS011;7157;53.144;7.570;2024-01-30T16:29:02;4.93;;;1.30;;
14153;SDS011;7157;53.144;7.570;2024-01-30T16:39:04;5.40;;;1.90;;
14153;SDS011;7157;53.144;7.570;2024-01-30T16:49:09;3.58;;;1.80;;
14153;SDS011;7157;53.144;7.570;2024-01-30T16:59:12;5.28;;;1.98;;
14153;SDS011;7157;53.144;7.570;2024-01-30T17:09:16;4.05;;;2.25;;
14153;SDS011;7157;53.144;7.570;2024-01-30T17:19:19;6.57;;;2.65;;
14153;SDS011;7157;53.144;7.570;2024-01-30T17:29:24;6.18;;;2.80;;
14153;SDS011;7157;53.144;7.570;2024-01-30T17:39:27;3.75;;;2.15;;
14153;SDS011;7157;53.144;7.570;2024-01-30T17:49:32;5.22;;;3.10;;
14153;SDS011;7157;53.144;7.570;2024-01-30T17:59:37;5.97;;;3.10;;
14153;SDS011;7157;53.144;7.570;2024-01-30T18:09:41;3.33;;;1.98;;
14153;SDS011;7157;53.144;7.570;2024-01-30T18:19:45;2.83;;;1.60;;
14153;SDS011;7157;53.144;7.570;2024-01-30T18:29:50;3.80;;;1.77;;
14153;SDS011;7157;53.144;7.570;2024-01-30T18:39:54;3.10;;;1.38;;
14153;SDS011;7157;53.144;7.570;2024-01-30T18:49:58;3.05;;;1.33;;
14153;SDS011;7157;53.144;7.570;2024-01-30T19:00:01;4.50;;;1.70;;
14153;SDS011;7157;53.144;7.570;2024-01-30T19:10:08;3.72;;;1.65;;
14153;SDS011;7157;53.144;7.570;2024-01-30T19:20:11;5.45;;;1.73;;
14153;SDS011;7157;53.144;7.570;2024-01-30T19:30:16;5.78;;;2.00;;
14153;SDS011;7157;53.144;7.570;2024-01-30T19:40:19;4.85;;;2.05;;
14153;SDS011;7157;53.144;7.570;2024-01-30T19:50:24;6.72;;;2.33;;
14153;SDS011;7157;53.144;7.570;2024-01-30T20:00:27;7.82;;;2.22;;
14153;SDS011;7157;53.144;7.570;2024-01-30T20:10:31;14.05;;;2.47;;
14153;SDS011;7157;53.144;7.570;2024-01-30T20:20:34;5.70;;;1.80;;
14153;SDS011;7157;53.144;7.570;2024-01-30T20:30:39;3.47;;;1.70;;
14153;SDS011;7157;53.144;7.570;2024-01-30T20:40:42;9.18;;;1.30;;
14153;SDS011;7157;53.144;7.570;2024-01-30T20:50:46;6.65;;;1.40;;
14153;SDS011;7157;53.144;7.570;2024-01-30T21:00:50;9.60;;;1.38;;
14153;SDS011;7157;53.144;7.570;2024-01-30T21:10:54;8.52;;;1.23;;
14153;SDS011;7157;53.144;7.570;2024-01-30T21:20:57;13.90;;;1.90;;
14153;SDS011;7157;53.144;7.570;2024-01-30T21:31:01;23.15;;;1.75;;
14153;SDS011;7157;53.144;7.570;2024-01-30T21:41:08;15.82;;;2.08;;
14153;SDS011;7157;53.144;7.570;2024-01-30T21:51:13;10.07;;;1.48;;
14153;SDS011;7157;53.144;7.570;2024-01-30T22:01:20;10.98;;;1.30;;
14153;SDS011;7157;53.144;7.570;2024-01-30T22:11:25;5.15;;;1.05;;
14153;SDS011;7157;53.144;7.570;2024-01-30T22:21:28;3.90;;;0.68;;
14153;SDS011;7157;53.144;7.570;2024-01-30T22:31:32;3.60;;;0.82;;
14153;SDS011;7157;53.144;7.570;2024-01-30T22:41:36;2.08;;;0.55;;
14153;SDS011;7157;53.144;7.570;2024-01-30T22:51:41;3.92;;;0.90;;
14153;SDS011;7157;53.144;7.570;2024-01-30T23:01:50;8.35;;;1.48;;
14153;SDS011;7157;53.144;7.570;2024-01-30T23:11:54;5.55;;;1.25;;
14153;SDS011;7157;53.144;7.570;2024-01-30T23:21:57;5.55;;;0.98;;
14153;SDS011;7157;53.144;7.570;2024-01-30T23:32:01;6.97;;;1.13;;
14153;SDS011;7157;53.144;7.570;2024-01-30T23:42:04;0.70;;;0.35;;
14153;SDS011;7157;53.144;7.570;2024-01-30T23:52:09;4.55;;;0.65;;
